New Rooks County (RCP)
Stockton, KS
Field Elevation: 1999
Lat: 39°20.80N  Long: 99°18.28W
CTAF/Unicom Freq: 122.9000
   
    
Weather Advisories
7/26/2014 13:09 Z
Altimeter 29.87" Hg
Wind 090° @ 0 KT
Gusts --
Visibility 10 SM
Temperature 26° C (79° F)
Dewpoint 20° C (68° F)
Relative Humidity 71%
Density Altitude 3,700 feet
Condensation Altitude 4,800 feet
  Wind and Runways
Indicated Runway = 18
History
 
 
More Info
All DigiWx sites map
NOAA Forecast
 
Airport IQ 5010
(FLV) Sherman Airfield
(K68) Garnett Municipal Airport
 
about DigiWx
 
FAA Disclaimer: The data displayed is for advisory purposes only and is not to be used for flight planning or operations. For official data, please call (not available) to hear the current automated AWOS voice message.
  METAR RCP 261309Z AUTO 09000KT 10SM 26/20 A2987